createdAt,value
2022-09-01T00:01:54.510Z,100482.97
2022-09-01T00:04:27.146Z,100482.88
2022-09-01T00:06:56.506Z,100490.06
2022-09-01T00:09:24.574Z,100480.00
2022-09-01T00:11:54.778Z,100490.06
2022-09-01T00:14:29.657Z,100480.22
2022-09-01T00:16:58.872Z,100483.66
2022-09-01T00:19:29.665Z,100484.47
2022-09-01T00:21:57.877Z,100488.63
2022-09-01T00:24:26.556Z,100490.94
2022-09-01T00:26:55.772Z,100495.19
2022-09-01T00:29:24.857Z,100497.13
2022-09-01T00:31:53.123Z,100504.66
2022-09-01T00:34:21.299Z,100497.31
2022-09-01T00:36:50.652Z,100489.41
2022-09-01T00:39:18.327Z,100487.28
2022-09-01T00:41:47.240Z,100492.66
2022-09-01T00:44:18.886Z,100487.72
2022-09-01T00:46:51.115Z,100486.06
2022-09-01T00:49:29.789Z,100486.59
2022-09-01T00:52:05.243Z,100478.63
2022-09-01T00:54:37.050Z,100479.91
2022-09-01T00:57:05.706Z,100481.94
2022-09-01T00:59:34.059Z,100473.75
2022-09-01T01:02:01.672Z,100485.63
2022-09-01T01:04:30.188Z,100488.81
2022-09-01T01:07:03.118Z,100477.56
2022-09-01T01:09:35.263Z,100478.81
2022-09-01T01:12:05.872Z,100471.19
2022-09-01T01:14:39.985Z,100479.09
2022-09-01T01:17:07.919Z,100478.75
2022-09-01T01:19:59.905Z,100471.28
2022-09-01T01:22:53.673Z,100466.56
2022-09-01T01:25:23.921Z,100466.84
2022-09-01T01:27:52.067Z,100468.22
2022-09-01T01:30:23.631Z,100471.09
2022-09-01T01:32:51.897Z,100467.75
2022-09-01T01:35:23.349Z,100467.09
2022-09-01T01:37:51.827Z,100458.09
2022-09-01T01:40:23.041Z,100461.69
2022-09-01T01:42:53.090Z,100466.56
2022-09-01T01:45:23.708Z,100454.84
2022-09-01T01:47:54.090Z,100460.63
2022-09-01T01:50:23.600Z,100466.00
2022-09-01T01:52:58.353Z,100462.34
2022-09-01T01:55:29.082Z,100470.25
2022-09-01T01:57:57.480Z,100456.78
2022-09-01T02:00:30.593Z,100459.50
2022-09-01T02:02:59.916Z,100465.59
2022-09-01T02:05:30.289Z,100462.19
2022-09-01T02:08:04.838Z,100459.13
2022-09-01T02:10:36.567Z,100467.25
2022-09-01T02:13:07.700Z,100461.31
2022-09-01T02:15:43.185Z,100459.81
2022-09-01T02:18:14.388Z,100460.03
2022-09-01T02:20:42.283Z,100454.38
2022-09-01T02:23:10.775Z,100460.63
2022-09-01T02:26:05.137Z,100464.22
2022-09-01T02:28:36.756Z,100451.59
2022-09-01T02:31:05.936Z,100457.84
2022-09-01T02:33:33.715Z,100451.44
2022-09-01T02:36:04.041Z,100455.94
2022-09-01T02:38:33.860Z,100459.41
2022-09-01T02:41:04.237Z,100446.94
2022-09-01T02:43:33.756Z,100455.88
2022-09-01T02:46:02.999Z,100448.50
2022-09-01T02:48:35.768Z,100449.25
2022-09-01T02:51:05.429Z,100453.31
2022-09-01T02:53:35.451Z,100456.75
2022-09-01T02:56:09.325Z,100451.22
2022-09-01T02:58:40.807Z,100451.75
2022-09-01T03:01:13.514Z,100447.03
2022-09-01T03:03:41.258Z,100448.47
2022-09-01T03:06:10.107Z,100456.75
2022-09-01T03:08:40.029Z,100450.56
2022-09-01T03:11:12.985Z,100451.75
2022-09-01T03:13:42.217Z,100445.44
2022-09-01T03:16:11.701Z,100450.38
2022-09-01T03:18:40.526Z,100447.47
2022-09-01T03:21:08.963Z,100446.34
2022-09-01T03:23:37.948Z,100438.00
2022-09-01T03:26:06.376Z,100443.91
2022-09-01T03:28:35.301Z,100448.97
2022-09-01T03:31:02.935Z,100451.44
2022-09-01T03:33:30.988Z,100451.59
2022-09-01T03:35:58.649Z,100455.81
2022-09-01T03:38:27.438Z,100455.81
2022-09-01T03:40:58.936Z,100453.28
2022-09-01T03:43:27.818Z,100453.31
2022-09-01T03:46:05.302Z,100455.22
2022-09-01T03:48:33.331Z,100451.91
2022-09-01T03:51:02.853Z,100448.75
2022-09-01T03:53:32.414Z,100451.09
2022-09-01T03:56:00.282Z,100439.91
2022-09-01T03:58:28.230Z,100444.66
2022-09-01T04:00:58.315Z,100444.69
2022-09-01T04:03:31.834Z,100449.13
2022-09-01T04:06:00.466Z,100447.66
2022-09-01T04:08:32.634Z,100449.09
2022-09-01T04:11:03.919Z,100451.81
2022-09-01T04:13:36.420Z,100447.06
2022-09-01T04:16:10.451Z,100448.03
2022-09-01T04:18:40.052Z,100449.69
2022-09-01T04:21:10.520Z,100449.91
2022-09-01T04:23:38.252Z,100452.00
2022-09-01T04:26:10.097Z,100455.13
2022-09-01T04:28:39.616Z,100456.84
2022-09-01T04:31:10.318Z,100453.34
2022-09-01T04:33:39.996Z,100457.66
2022-09-01T04:36:19.296Z,100455.00
2022-09-01T04:38:47.321Z,100453.91
2022-09-01T04:41:17.816Z,100455.63
2022-09-01T04:43:47.414Z,100458.72
2022-09-01T04:46:15.135Z,100467.47
2022-09-01T04:48:45.992Z,100468.13
2022-09-01T04:51:15.396Z,100473.16
2022-09-01T04:53:48.722Z,100462.13
2022-09-01T04:56:19.446Z,100466.34
2022-09-01T04:58:48.116Z,100465.94
2022-09-01T05:01:18.414Z,100464.44
2022-09-01T05:04:01.512Z,100464.47
2022-09-01T05:06:33.889Z,100464.22
2022-09-01T05:09:01.514Z,100468.31
2022-09-01T05:11:29.514Z,100481.56
2022-09-01T05:13:58.904Z,100476.22
2022-09-01T05:16:36.013Z,100481.50
2022-09-01T05:19:05.524Z,100490.56
2022-09-01T05:21:33.250Z,100484.00
2022-09-01T05:24:01.913Z,100491.25
2022-09-01T05:26:34.559Z,100483.19
2022-09-01T05:29:10.585Z,100484.22
2022-09-01T05:31:38.883Z,100488.59
2022-09-01T05:34:09.776Z,100485.44
2022-09-01T05:36:42.251Z,100487.75
2022-09-01T05:39:12.087Z,100483.50
2022-09-01T05:41:41.046Z,100487.03
2022-09-01T05:44:11.155Z,100486.88
2022-09-01T05:46:40.204Z,100480.69
2022-09-01T05:49:16.215Z,100487.94
2022-09-01T05:51:50.560Z,100491.59
2022-09-01T05:54:21.466Z,100479.16
2022-09-01T05:56:49.874Z,100487.88
2022-09-01T05:59:25.299Z,100485.53
2022-09-01T06:01:54.420Z,100491.78
2022-09-01T06:04:25.247Z,100489.31
2022-09-01T06:07:05.652Z,100490.59
2022-09-01T06:09:38.132Z,100483.69
2022-09-01T06:12:06.960Z,100483.16
2022-09-01T06:14:34.985Z,100485.66
2022-09-01T06:17:03.154Z,100480.34
2022-09-01T06:19:36.960Z,100479.84
2022-09-01T06:22:05.757Z,100471.94
2022-09-01T06:24:33.705Z,100476.72
2022-09-01T06:27:01.288Z,100480.41
2022-09-01T06:29:31.182Z,100482.53
2022-09-01T06:32:02.238Z,100474.41
2022-09-01T06:34:30.032Z,100479.97
2022-09-01T06:36:59.788Z,100484.47
2022-09-01T06:39:27.411Z,100491.06
2022-09-01T06:41:58.065Z,100490.38
2022-09-01T06:44:25.836Z,100498.28
2022-09-01T06:46:53.971Z,100488.00
2022-09-01T06:49:23.442Z,100495.34
2022-09-01T06:51:52.702Z,100489.06
2022-09-01T06:54:21.638Z,100488.94
2022-09-01T06:56:51.713Z,100489.81
2022-09-01T06:59:20.658Z,100491.56
2022-09-01T07:01:49.456Z,100492.72
2022-09-01T07:04:22.092Z,100498.88
2022-09-01T07:09:50.069Z,100500.97
2022-09-01T07:12:29.980Z,100497.84
2022-09-01T07:17:50.051Z,100501.78
2022-09-01T07:20:26.064Z,100496.00
2022-09-01T07:23:11.021Z,100497.88
2022-09-01T07:26:02.245Z,100496.22
2022-09-01T07:28:40.493Z,100492.59
2022-09-01T07:39:50.941Z,100485.72
2022-09-01T07:42:31.117Z,100496.41
2022-09-01T07:45:26.645Z,100482.16
2022-09-01T07:47:55.100Z,100486.25
2022-09-01T07:51:34.343Z,100490.56
2022-09-01T07:53:12.793Z,100495.06
2022-09-01T07:55:42.186Z,100489.84
2022-09-01T07:58:13.542Z,100503.59
2022-09-01T08:00:43.281Z,100498.59
2022-09-01T08:03:11.060Z,100486.63
2022-09-01T08:05:38.816Z,100489.91
2022-09-01T08:08:28.399Z,100493.88
2022-09-01T08:11:04.333Z,100502.13
2022-09-01T08:13:38.818Z,100492.84
2022-09-01T08:16:17.027Z,100493.91
2022-09-01T08:18:48.826Z,100486.47
2022-09-01T08:21:18.102Z,100492.59
2022-09-01T08:23:45.863Z,100486.59
2022-09-01T08:26:16.435Z,100497.16
2022-09-01T08:28:54.380Z,100504.47
2022-09-01T08:31:24.264Z,100491.78
2022-09-01T08:33:52.854Z,100494.19
2022-09-01T08:36:23.941Z,100494.44
2022-09-01T08:38:53.877Z,100491.97
2022-09-01T08:41:35.707Z,100492.03
2022-09-01T08:44:14.782Z,100503.16
2022-09-01T08:46:43.806Z,100495.53
2022-09-01T08:49:25.128Z,100491.97
2022-09-01T08:51:59.058Z,100498.16
2022-09-01T08:54:36.261Z,100486.63
2022-09-01T08:57:08.008Z,100491.28
2022-09-01T08:59:37.034Z,100486.31
2022-09-01T09:02:17.671Z,100478.16
2022-09-01T09:04:54.551Z,100475.69
2022-09-01T09:07:35.108Z,100470.91
2022-09-01T09:10:12.086Z,100487.97
2022-09-01T09:12:57.681Z,100476.56
2022-09-01T09:15:32.487Z,100477.25
2022-09-01T09:18:20.071Z,100477.34
2022-09-01T09:21:08.745Z,100481.41
2022-09-01T09:23:43.095Z,100475.09
2022-09-01T09:26:10.935Z,100460.53
2022-09-01T09:28:40.117Z,100464.25
2022-09-01T09:31:29.745Z,100459.03
2022-09-01T09:33:59.107Z,100465.19
2022-09-01T09:36:33.173Z,100461.44
2022-09-01T09:39:10.346Z,100448.16
2022-09-01T09:41:39.868Z,100462.38
2022-09-01T09:44:19.400Z,100454.47
2022-09-01T09:46:49.424Z,100445.81
2022-09-01T09:49:34.256Z,100455.00
2022-09-01T09:52:16.869Z,100453.09
2022-09-01T09:55:01.566Z,100448.59
2022-09-01T09:57:31.286Z,100443.69
2022-09-01T10:00:02.770Z,100439.69
2022-09-01T10:02:34.792Z,100442.16
2022-09-01T10:05:23.736Z,100432.63
2022-09-01T10:07:52.180Z,100440.13
2022-09-01T10:10:32.281Z,100430.53
2022-09-01T10:13:02.327Z,100422.25
2022-09-01T10:15:33.356Z,100421.25
2022-09-01T10:18:32.765Z,100432.13
2022-09-01T10:21:00.547Z,100428.72
2022-09-01T10:23:31.680Z,100424.09
2022-09-01T10:26:05.931Z,100415.53
2022-09-01T10:28:49.962Z,100423.03
2022-09-01T10:31:19.786Z,100420.47
2022-09-01T10:33:49.797Z,100416.19
2022-09-01T10:36:19.903Z,100421.69
2022-09-01T10:38:53.516Z,100407.97
2022-09-01T10:42:00.136Z,100412.28
2022-09-01T10:44:33.781Z,100414.84
2022-09-01T10:47:06.184Z,100414.78
2022-09-01T10:50:07.616Z,100416.41
2022-09-01T10:52:57.163Z,100403.91
2022-09-01T10:55:29.662Z,100408.84
2022-09-01T10:59:31.076Z,100397.00
2022-09-01T11:01:40.542Z,100397.31
2022-09-01T11:03:56.583Z,100406.84
2022-09-01T11:07:13.871Z,100395.59
2022-09-01T11:09:43.762Z,100390.19
2022-09-01T11:12:46.840Z,100388.53
2022-09-01T11:15:39.168Z,100385.53
2022-09-01T11:18:19.291Z,100384.41
2022-09-01T11:20:48.383Z,100368.28
2022-09-01T11:23:27.747Z,100375.59
2022-09-01T11:28:44.644Z,100375.59
2022-09-01T11:31:27.900Z,100375.03
2022-09-01T11:34:13.038Z,100366.84
2022-09-01T11:36:59.011Z,100359.00
2022-09-01T11:39:35.843Z,100369.28
2022-09-01T11:42:10.733Z,100362.28
2022-09-01T11:44:45.992Z,100355.66
2022-09-01T11:47:17.835Z,100358.03
2022-09-01T11:49:52.866Z,100359.47
2022-09-01T11:52:22.948Z,100360.88
2022-09-01T11:54:52.374Z,100345.19
2022-09-01T11:57:24.210Z,100337.78
2022-09-01T11:59:53.229Z,100339.91
2022-09-01T12:02:25.307Z,100335.72
2022-09-01T12:04:55.433Z,100339.03
2022-09-01T12:07:39.773Z,100334.78
2022-09-01T12:10:18.390Z,100342.66
2022-09-01T12:12:46.107Z,100336.63
2022-09-01T12:15:21.203Z,100329.66
2022-09-01T12:17:49.377Z,100325.47
2022-09-01T12:20:29.638Z,100317.28
2022-09-01T12:22:58.935Z,100320.53
2022-09-01T12:25:30.416Z,100328.28
2022-09-01T12:28:00.192Z,100313.31
2022-09-01T12:30:28.699Z,100309.97
2022-09-01T12:35:49.235Z,100306.63
2022-09-01T12:38:30.148Z,100298.97
2022-09-01T12:41:03.782Z,100289.28
2022-09-01T12:43:35.477Z,100285.13
2022-09-01T12:46:04.875Z,100285.13
2022-09-01T12:48:35.738Z,100298.28
2022-09-01T12:51:09.297Z,100293.00
2022-09-01T12:53:37.274Z,100297.34
2022-09-01T12:56:19.815Z,100286.03
2022-09-01T12:58:52.210Z,100281.66
2022-09-01T13:01:33.074Z,100283.81
2022-09-01T13:04:29.962Z,100282.50
2022-09-01T13:07:02.444Z,100273.59
2022-09-01T13:09:30.701Z,100284.06
2022-09-01T13:12:13.279Z,100274.50
2022-09-01T13:14:41.137Z,100269.25
2022-09-01T13:17:14.011Z,100282.44
2022-09-01T13:19:42.635Z,100284.69
2022-09-01T13:22:10.517Z,100276.34
2022-09-01T13:24:39.659Z,100283.66
2022-09-01T13:27:23.682Z,100266.28
2022-09-01T13:29:53.359Z,100266.44
2022-09-01T13:32:24.691Z,100262.63
2022-09-01T13:34:55.010Z,100258.78
2022-09-01T13:37:24.057Z,100259.38
2022-09-01T13:39:52.328Z,100251.75
2022-09-01T13:42:20.483Z,100255.03
2022-09-01T13:44:52.465Z,100253.09
2022-09-01T13:47:29.281Z,100255.47
2022-09-01T13:50:08.439Z,100250.19
2022-09-01T13:52:38.219Z,100246.72
2022-09-01T13:55:07.574Z,100234.06
2022-09-01T13:57:36.338Z,100240.09
2022-09-01T14:00:06.546Z,100236.13
2022-09-01T14:02:36.761Z,100233.75
2022-09-01T14:05:05.119Z,100230.94
2022-09-01T14:07:33.646Z,100228.88
2022-09-01T14:10:01.574Z,100222.91
2022-09-01T14:12:30.152Z,100222.69
2022-09-01T14:15:16.999Z,100229.31
2022-09-01T14:17:47.718Z,100230.47
2022-09-01T14:20:18.468Z,100224.19
2022-09-01T14:22:46.785Z,100221.28
2022-09-01T14:25:15.622Z,100225.22
2022-09-01T14:27:44.574Z,100217.75
2022-09-01T14:30:16.945Z,100217.56
2022-09-01T14:32:50.923Z,100218.28
2022-09-01T14:35:19.973Z,100216.19
2022-09-01T14:37:48.177Z,100218.34
2022-09-01T14:40:18.503Z,100217.22
2022-09-01T14:42:49.440Z,100209.56
2022-09-01T14:45:19.469Z,100221.94
2022-09-01T14:47:50.468Z,100210.22
2022-09-01T14:50:22.755Z,100211.38
2022-09-01T14:52:53.875Z,100206.97
2022-09-01T14:55:22.558Z,100195.69
2022-09-01T14:57:50.262Z,100200.97
2022-09-01T15:00:18.386Z,100191.44
2022-09-01T15:02:48.981Z,100192.06
2022-09-01T15:05:16.873Z,100188.91
2022-09-01T15:07:45.367Z,100178.34
2022-09-01T15:10:25.406Z,100189.72
2022-09-01T15:12:55.043Z,100189.81
2022-09-01T15:15:22.874Z,100190.97
2022-09-01T15:17:51.889Z,100176.81
2022-09-01T15:20:37.154Z,100182.13
2022-09-01T15:23:05.415Z,100181.69
2022-09-01T15:25:33.214Z,100184.81
2022-09-01T15:28:01.619Z,100179.31
2022-09-01T15:30:29.486Z,100175.78
2022-09-01T15:32:59.120Z,100174.81
2022-09-01T15:35:28.831Z,100178.34
2022-09-01T15:37:56.536Z,100178.63
2022-09-01T15:40:26.090Z,100172.19
2022-09-01T15:42:54.896Z,100170.41
2022-09-01T15:45:24.710Z,100172.50
2022-09-01T15:47:52.475Z,100169.09
2022-09-01T15:50:27.612Z,100175.09
2022-09-01T15:52:59.875Z,100167.47
2022-09-01T15:55:30.807Z,100166.44
2022-09-01T15:58:00.070Z,100161.22
2022-09-01T16:00:28.479Z,100166.72
2022-09-01T16:03:01.490Z,100162.81
2022-09-01T16:05:31.548Z,100163.97
2022-09-01T16:08:01.185Z,100173.03
2022-09-01T16:10:32.400Z,100168.88
2022-09-01T16:13:02.876Z,100170.28
2022-09-01T16:15:30.481Z,100166.13
2022-09-01T16:18:14.095Z,100162.81
2022-09-01T16:20:55.853Z,100160.88
2022-09-01T16:23:25.817Z,100158.44
2022-09-01T16:25:54.712Z,100166.59
2022-09-01T16:28:27.384Z,100161.59
2022-09-01T16:31:00.392Z,100160.03
2022-09-01T16:33:28.134Z,100157.91
2022-09-01T16:36:17.606Z,100152.06
2022-09-01T16:38:49.667Z,100159.47
2022-09-01T16:41:36.237Z,100163.16
2022-09-01T16:44:14.442Z,100159.34
2022-09-01T16:46:47.823Z,100154.09
2022-09-01T16:49:22.842Z,100152.22
2022-09-01T16:52:01.959Z,100158.28
2022-09-01T16:54:42.788Z,100155.56
2022-09-01T16:57:20.828Z,100151.19
2022-09-01T16:59:55.719Z,100145.97
2022-09-01T17:02:38.346Z,100149.59
2022-09-01T17:05:16.965Z,100153.72
2022-09-01T17:07:51.993Z,100152.59
2022-09-01T17:10:32.748Z,100141.09
2022-09-01T17:13:17.221Z,100140.56
2022-09-01T17:15:50.311Z,100145.53
2022-09-01T17:18:30.550Z,100146.09
2022-09-01T17:21:03.856Z,100142.31
2022-09-01T17:23:40.530Z,100138.75
2022-09-01T17:26:16.482Z,100144.28
2022-09-01T17:28:51.965Z,100135.84
2022-09-01T17:31:34.556Z,100144.59
2022-09-01T17:34:12.026Z,100145.16
2022-09-01T17:36:48.489Z,100156.13
2022-09-01T17:39:30.275Z,100150.38
2022-09-01T17:42:00.969Z,100148.78
2022-09-01T17:44:36.831Z,100154.28
2022-09-01T17:47:11.995Z,100154.84
2022-09-01T17:49:50.456Z,100149.38
2022-09-01T17:52:23.724Z,100147.75
2022-09-01T17:54:59.533Z,100148.81
2022-09-01T17:57:38.772Z,100150.72
2022-09-01T18:00:10.671Z,100145.25
2022-09-01T18:02:58.471Z,100146.34
2022-09-01T18:05:27.655Z,100151.28
2022-09-01T18:08:18.231Z,100143.59
2022-09-01T18:10:51.907Z,100148.25
2022-09-01T18:13:36.152Z,100148.81
2022-09-01T18:16:13.657Z,100152.34
2022-09-01T18:18:44.337Z,100164.63
2022-09-01T18:21:15.001Z,100158.91
2022-09-01T18:23:44.915Z,100177.22
2022-09-01T18:26:27.190Z,100171.19
2022-09-01T18:28:55.397Z,100181.00
2022-09-01T18:31:42.219Z,100177.06
2022-09-01T18:34:18.627Z,100184.69
2022-09-01T18:36:55.044Z,100184.38
2022-09-01T18:39:28.734Z,100186.28
2022-09-01T18:42:11.881Z,100188.13
2022-09-01T18:44:48.830Z,100190.03
2022-09-01T18:47:18.244Z,100190.22
2022-09-01T18:49:58.296Z,100198.06
2022-09-01T18:52:47.065Z,100198.84
2022-09-01T18:55:23.419Z,100201.75
2022-09-01T18:57:55.708Z,100209.06
2022-09-01T19:00:30.549Z,100199.53
2022-09-01T19:03:07.700Z,100211.44
2022-09-01T19:05:59.216Z,100202.34
2022-09-01T19:08:40.912Z,100207.53
2022-09-01T19:11:16.973Z,100215.41
2022-09-01T19:13:59.352Z,100208.16
2022-09-01T19:16:42.791Z,100217.50
2022-09-01T19:19:25.200Z,100219.41
2022-09-01T19:21:55.749Z,100217.13
2022-09-01T19:24:28.945Z,100223.59
2022-09-01T19:27:04.566Z,100214.28
2022-09-01T19:29:38.620Z,100222.22
2022-09-01T19:32:10.113Z,100230.94
2022-09-01T19:34:42.474Z,100227.09
2022-09-01T19:37:11.245Z,100226.50
2022-09-01T19:39:42.785Z,100234.44
2022-09-01T19:42:17.162Z,100234.81
2022-09-01T19:44:55.573Z,100230.69
2022-09-01T19:47:30.825Z,100238.59
2022-09-01T19:50:04.221Z,100237.94
2022-09-01T19:52:39.317Z,100231.16
2022-09-01T19:55:13.292Z,100234.94
2022-09-01T19:57:45.918Z,100241.72
2022-09-01T20:00:18.485Z,100238.72
2022-09-01T20:02:51.240Z,100241.22
2022-09-01T20:05:27.904Z,100246.47
2022-09-01T20:07:59.523Z,100243.34
2022-09-01T20:10:40.775Z,100247.44
2022-09-01T20:13:25.039Z,100243.22
2022-09-01T20:16:00.556Z,100241.06
2022-09-01T20:18:31.875Z,100246.63
2022-09-01T20:21:03.528Z,100242.38
2022-09-01T20:23:36.588Z,100239.75
2022-09-01T20:26:07.304Z,100247.63
2022-09-01T20:28:46.368Z,100248.72
2022-09-01T20:31:22.921Z,100255.31
2022-09-01T20:33:56.065Z,100254.97
2022-09-01T20:36:30.231Z,100258.38
2022-09-01T20:39:19.266Z,100257.38
2022-09-01T20:41:58.143Z,100259.38
2022-09-01T20:44:36.562Z,100257.78
2022-09-01T20:47:06.737Z,100266.84
2022-09-01T20:49:37.172Z,100261.81
2022-09-01T20:52:13.571Z,100263.66
2022-09-01T20:54:50.107Z,100259.44
2022-09-01T20:57:38.345Z,100273.88
2022-09-01T21:00:10.516Z,100274.59
2022-09-01T21:02:53.683Z,100274.44
2022-09-01T21:05:36.123Z,100276.81
2022-09-01T21:08:20.900Z,100279.56
2022-09-01T21:10:55.030Z,100283.25
2022-09-01T21:13:39.357Z,100285.88
2022-09-01T21:16:13.419Z,100285.31
2022-09-01T21:18:55.988Z,100277.81
2022-09-01T21:21:35.309Z,100280.53
2022-09-01T21:24:03.219Z,100286.88
2022-09-01T21:26:31.182Z,100284.34
2022-09-01T21:29:11.137Z,100278.72
2022-09-01T21:31:38.800Z,100282.34
2022-09-01T21:34:07.836Z,100279.81
2022-09-01T21:36:35.519Z,100277.34
2022-09-01T21:39:03.179Z,100276.66
2022-09-01T21:41:30.825Z,100276.16
2022-09-01T21:43:58.566Z,100278.00
2022-09-01T21:46:30.597Z,100276.81
2022-09-01T21:48:58.346Z,100277.06
2022-09-01T21:51:27.870Z,100273.34
2022-09-01T21:54:03.337Z,100278.06
2022-09-01T21:56:31.659Z,100284.47
2022-09-01T21:58:59.468Z,100282.00
2022-09-01T22:01:31.101Z,100280.59
2022-09-01T22:03:59.407Z,100270.13
2022-09-01T22:06:28.915Z,100273.16
2022-09-01T22:08:56.487Z,100270.13
2022-09-01T22:11:24.249Z,100273.50
2022-09-01T22:13:52.370Z,100269.13
2022-09-01T22:16:21.525Z,100275.19
2022-09-01T22:18:49.325Z,100266.69
2022-09-01T22:21:18.137Z,100269.88
2022-09-01T22:23:47.110Z,100273.31
2022-09-01T22:26:21.406Z,100259.88
2022-09-01T22:28:49.491Z,100267.06
2022-09-01T22:31:19.666Z,100266.38
2022-09-01T22:33:47.804Z,100259.78
2022-09-01T22:36:20.576Z,100265.56
2022-09-01T22:38:49.535Z,100270.66
2022-09-01T22:41:20.015Z,100267.50
2022-09-01T22:43:48.643Z,100263.63
2022-09-01T22:46:19.431Z,100269.00
2022-09-01T22:48:50.173Z,100270.22
2022-09-01T22:51:18.351Z,100270.81
2022-09-01T22:53:47.406Z,100270.25
2022-09-01T22:56:20.278Z,100264.94
2022-09-01T22:58:49.155Z,100266.84
2022-09-01T23:01:20.261Z,100269.31
2022-09-01T23:03:49.114Z,100264.28
2022-09-01T23:06:27.511Z,100261.44
2022-09-01T23:08:56.514Z,100262.25
2022-09-01T23:11:26.122Z,100265.47
2022-09-01T23:13:53.966Z,100261.22
2022-09-01T23:16:23.324Z,100255.69
2022-09-01T23:18:52.165Z,100263.84
2022-09-01T23:21:23.174Z,100259.13
2022-09-01T23:23:58.299Z,100265.75
2022-09-01T23:26:29.038Z,100261.16
2022-09-01T23:28:58.416Z,100267.16
2022-09-01T23:31:29.037Z,100258.38
2022-09-01T23:33:57.259Z,100255.69
2022-09-01T23:36:27.777Z,100265.00
2022-09-01T23:38:56.380Z,100256.03
2022-09-01T23:41:29.305Z,100259.38
2022-09-01T23:43:58.301Z,100257.00
2022-09-01T23:46:29.721Z,100261.13
2022-09-01T23:48:57.765Z,100271.00
2022-09-01T23:51:26.098Z,100266.06
2022-09-01T23:53:54.726Z,100259.56
2022-09-01T23:56:24.763Z,100261.44
2022-09-01T23:58:54.193Z,100263.91
